Time;durP1;ratioP1;P1;durP2;ratioP2;P2;SDS_P1;SDS_P2;PMS_P1;PMS_P2;Temp;Humidity;BMP_temperature;BMP_pressure;BME280_temperature;BME280_humidity;BME280_pressure;Samples;Min_cycle;Max_cycle;Signal;HPM_P1;HPM_P2
2023/05/10 00:01:29;;;;;;;29.90;8.25;;;8.40;91.80;;;;;;4933231;29;20070;-77
2023/05/10 00:03:57;;;;;;;31.83;9.18;;;8.40;93.40;;;;;;4916286;29;20052;-76
2023/05/10 00:06:24;;;;;;;29.27;8.27;;;8.40;95.70;;;;;;4900626;29;20052;-77
2023/05/10 00:08:51;;;;;;;27.30;9.05;;;8.40;97.40;;;;;;4933838;29;20075;-77
2023/05/10 00:11:20;;;;;;;30.27;8.38;;;8.40;98.80;;;;;;4900773;29;20052;-77
2023/05/10 00:13:47;;;;;;;29.00;9.13;;;8.40;99.90;;;;;;4931338;29;20056;-77
2023/05/10 00:16:15;;;;;;;27.88;9.13;;;8.30;99.90;;;;;;4933930;29;20063;-76
2023/05/10 00:18:42;;;;;;;18.45;9.57;;;8.30;99.90;;;;;;4914996;29;20142;-77
2023/05/10 00:21:09;;;;;;;19.15;8.27;;;8.30;99.90;;;;;;4886515;29;20044;-77
2023/05/10 00:23:37;;;;;;;27.15;8.55;;;8.30;99.90;;;;;;4900414;29;20076;-77
2023/05/10 00:26:04;;;;;;;24.83;9.85;;;8.30;99.90;;;;;;4922071;29;20541;-77
2023/05/10 00:28:33;;;;;;;27.35;8.77;;;8.20;99.90;;;;;;4913211;29;20093;-78
2023/05/10 00:31:00;;;;;;;22.33;8.93;;;8.20;99.90;;;;;;4933697;29;20051;-77
2023/05/10 00:33:27;;;;;;;28.88;8.88;;;8.10;99.90;;;;;;4895870;29;20079;-77
2023/05/10 00:35:54;;;;;;;32.08;8.93;;;8.10;99.90;;;;;;4924096;29;20058;-78
2023/05/10 00:38:22;;;;;;;25.42;9.45;;;8.10;99.90;;;;;;4935238;28;20112;-78
2023/05/10 00:40:49;;;;;;;26.15;9.80;;;8.00;99.90;;;;;;4932498;29;20464;-76
2023/05/10 00:43:25;;;;;;;28.42;10.15;;;8.00;99.90;;;;;;4896948;29;20051;-77
2023/05/10 00:45:54;;;;;;;24.65;10.88;;;8.00;99.90;;;;;;4915526;29;20055;-77
2023/05/10 00:48:21;;;;;;;29.48;10.38;;;8.00;99.90;;;;;;4933799;29;20079;-77
2023/05/10 00:50:49;;;;;;;28.73;10.05;;;7.90;99.90;;;;;;4911657;29;20048;-78
2023/05/10 00:53:16;;;;;;;28.48;9.20;;;7.90;99.90;;;;;;4933872;29;20497;-77
2023/05/10 00:55:45;;;;;;;40.40;9.73;;;7.80;99.90;;;;;;4898147;29;20063;-78
2023/05/10 00:58:13;;;;;;;32.72;10.35;;;7.80;99.90;;;;;;4909315;29;20040;-77
2023/05/10 01:00:43;;;;;;;35.45;9.45;;;7.80;99.90;;;;;;4933210;29;20056;-77
2023/05/10 01:03:12;;;;;;;39.90;9.73;;;7.80;99.90;;;;;;4914517;29;20052;-77
2023/05/10 01:05:40;;;;;;;26.90;8.73;;;7.70;99.90;;;;;;4911955;29;20056;-78
2023/05/10 01:08:08;;;;;;;27.85;8.60;;;7.70;99.90;;;;;;4914902;29;20501;-77
2023/05/10 01:10:35;;;;;;;27.70;10.18;;;7.60;99.90;;;;;;4914201;29;20066;-78
2023/05/10 01:13:03;;;;;;;37.55;10.35;;;7.60;99.90;;;;;;4922737;29;20056;-78
2023/05/10 01:15:31;;;;;;;32.05;10.10;;;7.60;99.90;;;;;;4931832;29;20059;-77
2023/05/10 01:17:59;;;;;;;31.65;8.98;;;7.60;99.90;;;;;;4934346;29;20070;-78
2023/05/10 01:20:33;;;;;;;26.50;8.85;;;7.50;99.90;;;;;;4936139;29;20087;-79
2023/05/10 01:23:28;;;;;;;28.63;9.20;;;7.50;99.90;;;;;;4905002;29;20063;-76
2023/05/10 01:26:20;;;;;;;21.83;9.02;;;7.40;99.90;;;;;;4930024;29;20504;-78
2023/05/10 01:29:25;;;;;;;28.95;10.02;;;7.40;99.90;;;;;;4895081;29;20509;-77
2023/05/10 01:32:16;;;;;;;36.22;10.07;;;7.30;99.90;;;;;;4889514;29;20068;-78
2023/05/10 01:34:54;;;;;;;31.75;9.65;;;7.30;99.90;;;;;;4929446;29;20056;-78
2023/05/10 01:37:26;;;;;;;28.45;9.70;;;7.30;99.90;;;;;;4938614;29;20424;-76
2023/05/10 01:40:01;;;;;;;27.02;9.98;;;7.30;99.90;;;;;;4939897;29;20123;-77
2023/05/10 01:42:37;;;;;;;23.08;9.48;;;7.30;99.90;;;;;;4940649;29;20051;-78
2023/05/10 01:45:15;;;;;;;25.98;9.60;;;7.30;99.90;;;;;;4920809;29;20052;-78
2023/05/10 01:47:47;;;;;;;28.83;9.38;;;7.40;99.90;;;;;;4940911;29;20075;-78
2023/05/10 01:50:18;;;;;;;24.75;9.73;;;7.30;99.90;;;;;;4919659;29;20070;-78
2023/05/10 01:52:57;;;;;;;27.85;9.82;;;7.30;99.90;;;;;;4926928;29;20504;-77
2023/05/10 01:55:28;;;;;;;25.08;9.65;;;7.30;99.90;;;;;;4918665;29;20052;-77
2023/05/10 01:58:04;;;;;;;31.73;9.02;;;7.30;99.90;;;;;;4917352;29;20063;-77
2023/05/10 02:00:33;;;;;;;27.85;8.57;;;7.30;99.90;;;;;;4902996;29;20142;-77
2023/05/10 02:03:06;;;;;;;32.33;8.88;;;7.40;99.90;;;;;;4918877;29;20096;-78
2023/05/10 02:05:35;;;;;;;25.45;10.40;;;7.40;99.90;;;;;;4916502;29;20060;-78
2023/05/10 02:08:03;;;;;;;33.05;9.77;;;7.40;99.90;;;;;;4911001;29;20084;-78
2023/05/10 02:10:32;;;;;;;27.50;10.07;;;7.30;99.90;;;;;;4936035;29;20138;-77
2023/05/10 02:13:00;;;;;;;36.08;10.98;;;7.30;99.90;;;;;;4920683;29;20058;-77
2023/05/10 02:15:29;;;;;;;26.77;9.13;;;7.30;99.90;;;;;;4903964;29;20054;-78
2023/05/10 02:17:59;;;;;;;34.17;9.85;;;7.30;99.90;;;;;;4930628;29;20047;-77
2023/05/10 02:20:28;;;;;;;28.75;9.50;;;7.30;99.90;;;;;;4921897;29;20193;-77
2023/05/10 02:22:57;;;;;;;33.15;10.60;;;7.30;99.90;;;;;;4934705;29;20095;-77
2023/05/10 02:25:26;;;;;;;38.30;11.13;;;7.30;99.90;;;;;;4936237;29;20055;-77
2023/05/10 02:27:56;;;;;;;29.30;10.15;;;7.30;99.90;;;;;;4935216;29;20457;-78
2023/05/10 02:30:24;;;;;;;33.40;11.73;;;7.30;99.90;;;;;;4902556;29;20078;-77
2023/05/10 02:32:53;;;;;;;29.95;10.50;;;7.40;99.90;;;;;;4917458;29;20052;-78
2023/05/10 02:35:20;;;;;;;34.53;10.88;;;7.40;99.90;;;;;;4935915;29;20048;-78
2023/05/10 02:37:51;;;;;;;42.28;11.25;;;7.40;99.90;;;;;;4917323;29;20051;-78
2023/05/10 02:40:20;;;;;;;43.53;10.32;;;7.30;99.90;;;;;;4917906;29;20111;-78
2023/05/10 02:42:50;;;;;;;30.98;10.50;;;7.30;99.90;;;;;;4918370;29;20083;-77
2023/05/10 02:45:21;;;;;;;38.25;10.75;;;7.30;99.90;;;;;;4918159;29;20468;-77
2023/05/10 02:47:49;;;;;;;33.13;10.77;;;7.20;99.90;;;;;;4917158;29;20525;-78
2023/05/10 02:50:16;;;;;;;28.63;10.35;;;7.30;99.90;;;;;;4933625;29;20048;-77
2023/05/10 02:52:47;;;;;;;33.53;10.93;;;7.30;99.90;;;;;;4933878;29;20063;-77
2023/05/10 02:55:17;;;;;;;38.72;11.48;;;7.30;99.90;;;;;;4918032;29;20420;-77
2023/05/10 02:57:50;;;;;;;36.55;10.20;;;7.30;99.90;;;;;;4915142;29;20052;-77
2023/05/10 03:00:18;;;;;;;30.35;10.45;;;7.30;99.90;;;;;;4917014;29;20051;-78
2023/05/10 03:02:45;;;;;;;30.70;11.02;;;7.30;99.90;;;;;;4933359;29;20083;-77
2023/05/10 03:05:12;;;;;;;35.55;10.85;;;7.30;99.90;;;;;;4915884;29;20056;-78
2023/05/10 03:07:39;;;;;;;32.47;10.40;;;7.30;99.90;;;;;;4913774;29;20514;-79
2023/05/10 03:10:08;;;;;;;38.00;11.25;;;7.30;99.90;;;;;;4937897;29;20134;-78
2023/05/10 03:12:57;;;;;;;40.45;11.98;;;7.30;99.90;;;;;;4900422;29;20051;-78
2023/05/10 03:15:34;;;;;;;30.80;10.00;;;7.30;99.90;;;;;;4933013;29;20134;-78
2023/05/10 03:18:07;;;;;;;32.97;10.45;;;7.40;99.90;;;;;;4914530;29;20104;-77
2023/05/10 03:20:39;;;;;;;29.23;11.65;;;7.40;99.90;;;;;;4889825;29;20066;-77
2023/05/10 03:23:14;;;;;;;38.92;11.23;;;7.40;99.90;;;;;;4905917;29;20453;-78
2023/05/10 03:25:44;;;;;;;34.75;11.10;;;7.50;99.90;;;;;;4931347;29;20052;-77
2023/05/10 03:28:15;;;;;;;48.25;12.55;;;7.50;99.90;;;;;;4914222;29;20048;-77
2023/05/10 03:30:44;;;;;;;40.25;12.07;;;7.50;99.90;;;;;;4898328;29;20103;-78
2023/05/10 03:33:13;;;;;;;40.45;11.68;;;7.50;99.90;;;;;;4909564;29;20047;-76
2023/05/10 03:35:45;;;;;;;45.30;11.77;;;7.60;99.90;;;;;;4917552;29;20509;-78
2023/05/10 03:38:13;;;;;;;45.88;11.73;;;7.60;99.90;;;;;;4914253;29;20112;-78
2023/05/10 03:40:41;;;;;;;36.65;12.55;;;7.60;99.90;;;;;;4882202;29;20151;-77
2023/05/10 03:43:09;;;;;;;33.47;11.90;;;7.70;99.90;;;;;;4910625;29;20082;-78
2023/05/10 03:45:38;;;;;;;32.13;11.95;;;7.80;99.90;;;;;;4914698;29;20101;-79
2023/05/10 03:48:05;;;;;;;29.73;10.68;;;7.90;99.90;;;;;;4925663;29;20142;-78
2023/05/10 03:50:33;;;;;;;36.17;11.80;;;8.00;99.90;;;;;;4917018;29;20103;-78
2023/05/10 03:53:00;;;;;;;37.40;12.18;;;8.10;99.90;;;;;;4930888;29;20052;-79
2023/05/10 03:55:29;;;;;;;36.30;11.23;;;8.10;99.90;;;;;;4916146;29;20051;-79
2023/05/10 03:57:57;;;;;;;31.20;10.55;;;8.20;99.90;;;;;;4913562;29;20060;-79
2023/05/10 04:00:25;;;;;;;35.60;11.55;;;8.30;99.90;;;;;;4917374;29;20106;-78
2023/05/10 04:02:56;;;;;;;38.05;12.75;;;8.40;99.90;;;;;;4932745;29;20139;-78
2023/05/10 04:05:24;;;;;;;27.63;12.15;;;8.50;99.90;;;;;;4901377;29;20048;-79
2023/05/10 04:07:53;;;;;;;34.55;11.45;;;8.60;99.90;;;;;;4913846;29;20052;-79
2023/05/10 04:10:21;;;;;;;35.60;12.75;;;8.70;99.90;;;;;;4909852;29;20131;-78
2023/05/10 04:12:48;;;;;;;34.65;12.07;;;8.80;99.90;;;;;;4933539;29;20575;-78
2023/05/10 04:15:16;;;;;;;32.63;12.07;;;8.90;99.90;;;;;;4933120;29;20480;-77
2023/05/10 04:17:43;;;;;;;40.25;12.00;;;8.90;99.90;;;;;;4909694;29;20517;-78
2023/05/10 04:20:13;;;;;;;34.20;12.88;;;9.10;99.90;;;;;;4927580;29;20139;-78
2023/05/10 04:22:40;;;;;;;35.40;12.45;;;9.20;99.90;;;;;;4932476;29;20087;-77
2023/05/10 04:25:08;;;;;;;24.13;11.20;;;9.30;99.90;;;;;;4912343;29;20048;-78
2023/05/10 04:27:35;;;;;;;30.73;11.45;;;9.50;99.90;;;;;;4925873;29;20051;-81
2023/05/10 04:30:04;;;;;;;27.40;10.80;;;9.60;99.90;;;;;;4914505;29;20052;-78
2023/05/10 04:32:33;;;;;;;31.27;11.48;;;9.80;99.90;;;;;;4900973;29;20059;-78
2023/05/10 04:35:03;;;;;;;29.23;11.95;;;9.90;99.90;;;;;;4930933;29;20524;-74
2023/05/10 04:37:32;;;;;;;31.63;13.32;;;10.00;99.90;;;;;;4933386;29;20056;-74
2023/05/10 04:40:00;;;;;;;32.25;13.10;;;10.20;99.90;;;;;;4916576;29;20444;-73
2023/05/10 04:42:28;;;;;;;51.67;13.80;;;10.30;99.90;;;;;;4899816;29;20054;-73
2023/05/10 04:44:55;;;;;;;32.58;13.50;;;10.40;99.90;;;;;;4913893;29;20579;-73
2023/05/10 04:47:22;;;;;;;31.25;12.15;;;10.60;99.40;;;;;;4930783;29;20043;-73
2023/05/10 04:49:49;;;;;;;30.15;13.15;;;10.70;98.10;;;;;;4906535;29;20083;-73
2023/05/10 04:52:17;;;;;;;32.45;13.25;;;10.80;97.00;;;;;;4933951;29;20058;-73
2023/05/10 04:54:46;;;;;;;26.38;12.60;;;10.90;95.70;;;;;;4935108;29;20488;-73
2023/05/10 04:57:13;;;;;;;31.67;11.93;;;11.00;95.00;;;;;;4919229;29;20091;-73
2023/05/10 04:59:40;;;;;;;31.95;13.48;;;11.10;94.00;;;;;;4930911;29;20093;-73
2023/05/10 05:02:08;;;;;;;29.05;11.70;;;11.20;93.40;;;;;;4932784;29;20394;-75
2023/05/10 05:04:35;;;;;;;23.50;12.13;;;11.40;92.70;;;;;;4933589;29;20107;-78
2023/05/10 05:07:02;;;;;;;25.23;11.88;;;11.50;91.70;;;;;;4932613;29;20418;-78
2023/05/10 05:09:31;;;;;;;24.38;11.07;;;11.70;90.40;;;;;;4931329;29;20048;-79
2023/05/10 05:12:00;;;;;;;24.17;11.23;;;11.80;89.30;;;;;;4910953;29;20498;-79
2023/05/10 05:14:27;;;;;;;20.17;8.30;;;12.00;86.60;;;;;;4935822;29;20452;-80
2023/05/10 05:16:55;;;;;;;16.80;7.78;;;12.20;81.70;;;;;;4935397;29;20047;-80
2023/05/10 05:19:22;;;;;;;16.23;7.88;;;12.30;78.80;;;;;;4920015;29;20051;-78
2023/05/10 05:21:50;;;;;;;20.58;8.90;;;12.60;77.50;;;;;;4918722;29;20063;-77
2023/05/10 05:24:17;;;;;;;18.35;8.98;;;13.10;75.80;;;;;;4933083;29;20487;-78
2023/05/10 05:26:44;;;;;;;20.15;8.50;;;13.60;75.40;;;;;;4916750;29;20525;-78
2023/05/10 05:29:13;;;;;;;20.95;9.52;;;14.20;73.60;;;;;;4916441;29;20063;-79
2023/05/10 05:31:40;;;;;;;17.00;9.00;;;14.80;70.70;;;;;;4935869;29;20048;-77
2023/05/10 05:34:07;;;;;;;19.50;7.75;;;15.40;69.00;;;;;;4935800;29;20059;-79
2023/05/10 05:36:41;;;;;;;15.32;7.40;;;16.00;63.90;;;;;;4934983;29;20047;-79
2023/05/10 05:39:08;;;;;;;7.32;5.30;;;16.40;60.00;;;;;;4927421;29;20048;-74
2023/05/10 05:41:39;;;;;;;12.35;6.10;;;16.70;58.30;;;;;;4929081;29;20079;-77
2023/05/10 05:44:06;;;;;;;9.98;5.88;;;17.10;56.90;;;;;;4927241;29;20059;-74
2023/05/10 05:46:35;;;;;;;11.25;5.07;;;17.50;55.50;;;;;;4925414;29;20390;-74
2023/05/10 05:49:02;;;;;;;7.88;4.63;;;18.00;53.30;;;;;;4910331;29;20445;-73
2023/05/10 05:51:30;;;;;;;7.97;4.10;;;18.40;51.50;;;;;;4926463;29;20059;-75
2023/05/10 05:53:57;;;;;;;4.60;4.15;;;18.70;50.40;;;;;;4931879;29;20099;-71
2023/05/10 05:56:24;;;;;;;7.45;5.10;;;19.20;50.10;;;;;;4935201;29;20082;-73
2023/05/10 05:58:52;;;;;;;10.77;4.55;;;19.40;48.00;;;;;;4931579;29;20051;-73
2023/05/10 06:01:20;;;;;;;14.43;5.78;;;19.60;48.40;;;;;;4934712;29;20086;-71
2023/05/10 06:03:48;;;;;;;8.25;4.60;;;19.70;48.30;;;;;;4919866;29;20218;-72
2023/05/10 06:06:16;;;;;;;12.63;4.55;;;19.90;47.20;;;;;;4931131;29;20075;-71
2023/05/10 06:08:43;;;;;;;8.95;4.30;;;20.00;47.10;;;;;;4915665;29;20052;-74
2023/05/10 06:11:10;;;;;;;8.75;4.18;;;20.20;47.40;;;;;;4923246;29;20150;-70
2023/05/10 06:13:37;;;;;;;7.05;4.32;;;20.60;47.60;;;;;;4914693;29;20139;-72
2023/05/10 06:16:05;;;;;;;9.13;4.22;;;21.00;48.00;;;;;;4935690;29;20047;-73
2023/05/10 06:18:32;;;;;;;7.72;4.57;;;21.50;47.00;;;;;;4912598;29;20103;-70
2023/05/10 06:21:01;;;;;;;13.52;4.05;;;21.70;47.20;;;;;;4929113;29;20067;-75
2023/05/10 06:23:28;;;;;;;9.80;4.05;;;21.90;46.90;;;;;;4929822;29;20401;-77
2023/05/10 06:25:56;;;;;;;10.75;4.18;;;22.00;46.40;;;;;;4933258;29;20052;-77
2023/05/10 06:28:23;;;;;;;13.05;4.72;;;22.00;46.60;;;;;;4933963;29;20488;-77
2023/05/10 06:30:50;;;;;;;16.48;5.78;;;22.30;46.30;;;;;;4931282;29;20056;-76
2023/05/10 06:33:17;;;;;;;14.50;5.10;;;22.30;46.20;;;;;;4930541;29;20086;-76
2023/05/10 06:35:45;;;;;;;13.57;4.50;;;22.30;46.00;;;;;;4899140;29;20055;-76
2023/05/10 06:38:13;;;;;;;16.23;4.60;;;22.50;45.60;;;;;;4935401;29;20457;-76
2023/05/10 06:40:43;;;;;;;7.07;3.53;;;22.70;45.30;;;;;;4916171;29;20553;-78
2023/05/10 06:43:10;;;;;;;6.22;3.55;;;22.90;45.20;;;;;;4900052;29;20085;-71
2023/05/10 06:45:37;;;;;;;14.57;4.30;;;23.10;44.90;;;;;;4903781;29;20067;-70
2023/05/10 06:48:05;;;;;;;7.50;3.67;;;23.40;45.00;;;;;;4918045;29;20043;-71
2023/05/10 06:50:33;;;;;;;10.60;4.00;;;23.50;44.10;;;;;;4927602;29;20047;-71
2023/05/10 06:53:00;;;;;;;13.75;4.30;;;23.60;44.30;;;;;;4934899;29;20481;-71
2023/05/10 06:55:29;;;;;;;3.38;2.88;;;23.90;44.00;;;;;;4926969;29;20059;-71
2023/05/10 06:57:56;;;;;;;7.55;3.08;;;24.00;43.60;;;;;;4888980;29;20493;-71
2023/05/10 07:00:24;;;;;;;7.30;3.38;;;24.10;43.40;;;;;;4929435;29;20052;-71
2023/05/10 07:02:51;;;;;;;5.43;3.17;;;24.20;43.30;;;;;;4929978;29;20062;-71
2023/05/10 07:05:18;;;;;;;4.53;2.75;;;24.40;43.00;;;;;;4927251;29;20055;-72
2023/05/10 07:07:45;;;;;;;7.32;2.95;;;24.50;43.10;;;;;;4931805;29;20051;-71
2023/05/10 07:10:13;;;;;;;8.90;2.90;;;24.70;42.90;;;;;;4929467;29;20055;-72
2023/05/10 07:12:41;;;;;;;6.78;2.65;;;24.80;42.90;;;;;;4916878;29;20048;-71
2023/05/10 07:15:10;;;;;;;9.93;3.33;;;24.80;42.50;;;;;;4925318;29;20111;-75
2023/05/10 07:17:37;;;;;;;4.57;2.60;;;24.90;42.60;;;;;;4933363;29;20638;-77
2023/05/10 07:20:05;;;;;;;6.38;2.85;;;24.80;42.80;;;;;;4933834;29;20071;-75
2023/05/10 07:22:33;;;;;;;5.35;2.83;;;25.10;42.80;;;;;;4932453;29;20488;-71
2023/05/10 07:25:00;;;;;;;7.35;3.47;;;25.10;42.00;;;;;;4915553;29;20147;-72
2023/05/10 07:27:27;;;;;;;7.75;3.50;;;25.10;42.70;;;;;;4932397;29;20075;-71
2023/05/10 07:29:56;;;;;;;9.60;2.80;;;25.10;42.30;;;;;;4934097;29;20098;-70
2023/05/10 07:32:23;;;;;;;5.45;2.88;;;25.10;42.50;;;;;;4934414;29;20047;-71
2023/05/10 07:34:51;;;;;;;15.98;2.70;;;25.10;42.20;;;;;;4917536;29;20432;-71
2023/05/10 07:37:18;;;;;;;7.53;2.75;;;25.20;42.60;;;;;;4934224;29;20079;-71
2023/05/10 07:39:46;;;;;;;4.13;3.00;;;25.40;42.00;;;;;;4932635;29;20138;-70
2023/05/10 07:42:13;;;;;;;7.40;2.47;;;25.70;41.40;;;;;;4932253;29;20078;-71
2023/05/10 07:44:40;;;;;;;6.28;2.72;;;26.00;41.40;;;;;;4932250;29;20071;-71
2023/05/10 07:47:08;;;;;;;4.95;2.55;;;26.10;42.10;;;;;;4932240;29;20129;-71
2023/05/10 07:49:36;;;;;;;4.60;2.50;;;26.20;41.50;;;;;;4931219;29;20422;-71
2023/05/10 07:52:04;;;;;;;6.97;2.50;;;26.70;40.90;;;;;;4932137;29;20054;-71
2023/05/10 07:54:31;;;;;;;3.70;2.45;;;27.10;41.10;;;;;;4932688;29;20059;-73
2023/05/10 07:56:59;;;;;;;8.02;2.70;;;27.30;40.00;;;;;;4933807;29;20043;-71
2023/05/10 07:59:27;;;;;;;8.20;3.25;;;27.50;38.60;;;;;;4933944;29;20056;-71
2023/05/10 08:01:54;;;;;;;6.13;2.80;;;27.20;38.80;;;;;;4916902;29;20415;-71
2023/05/10 08:04:23;;;;;;;9.75;2.38;;;27.20;38.60;;;;;;4927123;29;20040;-72
2023/05/10 08:06:50;;;;;;;8.52;2.47;;;27.50;38.70;;;;;;4932988;29;20146;-72
2023/05/10 08:09:18;;;;;;;4.65;2.17;;;27.80;39.50;;;;;;4926853;29;20083;-72
2023/05/10 08:11:45;;;;;;;4.50;1.85;;;28.00;37.70;;;;;;4932261;29;20079;-71
2023/05/10 08:14:12;;;;;;;5.15;2.42;;;28.30;37.70;;;;;;4933911;29;20063;-71
2023/05/10 08:16:39;;;;;;;4.25;2.33;;;28.50;37.50;;;;;;4913487;29;20047;-71
2023/05/10 08:19:07;;;;;;;5.15;1.90;;;28.60;37.10;;;;;;4934114;29;20061;-71
2023/05/10 08:21:37;;;;;;;8.68;2.58;;;28.70;36.90;;;;;;4900729;29;20150;-70
2023/05/10 08:24:04;;;;;;;10.23;3.00;;;29.00;36.80;;;;;;4916614;29;20425;-71
2023/05/10 08:26:33;;;;;;;8.27;2.53;;;29.10;36.30;;;;;;4932733;29;20513;-68
2023/05/10 08:29:00;;;;;;;6.70;2.80;;;29.30;37.20;;;;;;4916587;29;20059;-73
2023/05/10 08:31:27;;;;;;;9.70;2.10;;;29.50;36.60;;;;;;4933507;29;20111;-69
2023/05/10 08:33:55;;;;;;;4.68;2.33;;;29.80;35.40;;;;;;4932974;29;20490;-70
2023/05/10 08:36:24;;;;;;;2.40;1.90;;;29.90;35.80;;;;;;4933660;29;20099;-71
2023/05/10 08:38:53;;;;;;;3.47;2.20;;;30.00;34.70;;;;;;4933592;29;20521;-69
2023/05/10 08:41:21;;;;;;;6.88;2.28;;;30.00;35.30;;;;;;4931547;29;20492;-70
2023/05/10 08:43:49;;;;;;;8.73;2.72;;;29.80;35.70;;;;;;4927851;29;20371;-69
2023/05/10 08:46:18;;;;;;;5.50;2.45;;;29.90;35.30;;;;;;4933861;29;20406;-70
2023/05/10 08:48:46;;;;;;;7.90;2.65;;;30.00;35.20;;;;;;4933895;29;20057;-69
2023/05/10 08:51:16;;;;;;;6.85;2.00;;;30.30;34.90;;;;;;4933306;29;20056;-70
2023/05/10 08:53:43;;;;;;;7.78;2.53;;;30.40;34.70;;;;;;4932725;29;20059;-68
2023/05/10 08:56:12;;;;;;;8.20;2.08;;;30.60;35.70;;;;;;4933556;29;20084;-71
2023/05/10 08:58:40;;;;;;;3.85;1.95;;;30.40;34.70;;;;;;4933837;29;20119;-70
2023/05/10 09:01:08;;;;;;;6.65;2.40;;;30.10;35.10;;;;;;4932449;29;20059;-73
2023/05/10 09:03:36;;;;;;;9.30;2.30;;;30.20;35.60;;;;;;4933147;29;20425;-71
2023/05/10 09:06:03;;;;;;;3.63;2.08;;;30.50;34.60;;;;;;4933631;29;20550;-69
2023/05/10 09:08:30;;;;;;;4.03;2.00;;;30.60;35.10;;;;;;4933178;29;20096;-69
2023/05/10 09:10:58;;;;;;;8.88;2.50;;;30.50;35.10;;;;;;4931765;29;20095;-70
2023/05/10 09:13:27;;;;;;;4.43;2.03;;;30.50;36.70;;;;;;4932386;29;20059;-72
2023/05/10 09:15:55;;;;;;;6.25;2.30;;;30.50;36.20;;;;;;4932663;29;20047;-82
2023/05/10 09:18:23;;;;;;;8.82;2.42;;;30.50;35.40;;;;;;4914483;29;20055;-69
2023/05/10 09:20:50;;;;;;;6.80;2.22;;;30.40;35.70;;;;;;4903860;29;20044;-67
2023/05/10 09:23:17;;;;;;;5.60;2.42;;;30.40;35.80;;;;;;4932864;29;20043;-68
2023/05/10 09:25:45;;;;;;;6.80;2.38;;;30.80;35.60;;;;;;4916091;29;20062;-69
2023/05/10 09:28:12;;;;;;;3.53;2.17;;;31.00;35.50;;;;;;4932595;29;20085;-67
2023/05/10 09:30:42;;;;;;;13.43;2.50;;;31.20;35.40;;;;;;4927380;29;20048;-68
2023/05/10 09:33:10;;;;;;;4.75;2.65;;;31.30;35.10;;;;;;4915626;29;20103;-74
2023/05/10 09:35:39;;;;;;;5.45;2.22;;;31.50;35.20;;;;;;4926441;29;20048;-68
2023/05/10 09:38:07;;;;;;;8.52;2.35;;;31.70;34.70;;;;;;4928115;29;20058;-67
2023/05/10 09:40:34;;;;;;;5.63;1.95;;;32.00;35.10;;;;;;4931519;29;20126;-68
2023/05/10 09:43:03;;;;;;;4.53;2.85;;;32.10;35.70;;;;;;4925214;29;20143;-70
2023/05/10 09:45:31;;;;;;;8.57;2.70;;;32.00;35.50;;;;;;4926060;29;20150;-70
2023/05/10 09:48:02;;;;;;;8.80;2.80;;;32.00;35.50;;;;;;4928860;29;20056;-69
2023/05/10 09:50:30;;;;;;;9.18;2.70;;;32.30;35.70;;;;;;4929177;29;20052;-68
2023/05/10 09:52:59;;;;;;;5.05;2.40;;;32.20;35.50;;;;;;4926400;29;20489;-70
2023/05/10 09:55:39;;;;;;;10.73;2.50;;;32.20;35.60;;;;;;4927022;29;20051;-67
2023/05/10 09:58:10;;;;;;;7.15;2.60;;;32.00;36.10;;;;;;4926603;29;20047;-69
2023/05/10 10:00:38;;;;;;;9.93;2.88;;;31.80;36.70;;;;;;4925779;29;20048;-68
2023/05/10 10:03:12;;;;;;;6.05;2.72;;;31.60;36.10;;;;;;4926865;29;20499;-69
2023/05/10 10:05:42;;;;;;;9.43;2.60;;;31.70;36.10;;;;;;4927484;29;20104;-69
2023/05/10 10:08:10;;;;;;;4.05;2.80;;;32.00;35.90;;;;;;4928427;29;20051;-70
2023/05/10 10:10:38;;;;;;;3.40;3.05;;;31.90;36.10;;;;;;4889212;29;20058;-69
2023/05/10 10:13:06;;;;;;;6.40;2.70;;;32.10;36.10;;;;;;4902977;29;20461;-75
2023/05/10 10:15:33;;;;;;;4.68;2.40;;;32.10;36.00;;;;;;4910313;29;20043;-74
2023/05/10 10:18:01;;;;;;;7.22;2.45;;;32.30;35.30;;;;;;4920053;29;20048;-74
2023/05/10 10:20:30;;;;;;;5.57;2.13;;;32.60;35.70;;;;;;4887439;29;20052;-74
2023/05/10 10:22:57;;;;;;;4.97;2.55;;;32.80;35.60;;;;;;4928652;29;20048;-73
2023/05/10 10:25:26;;;;;;;6.40;2.50;;;32.80;35.00;;;;;;4927914;29;20067;-73
2023/05/10 10:28:09;;;;;;;7.95;2.22;;;32.90;35.30;;;;;;4927431;29;20055;-73
2023/05/10 10:30:43;;;;;;;6.90;2.63;;;33.00;33.80;;;;;;4908295;29;20112;-73
2023/05/10 10:33:29;;;;;;;6.18;2.20;;;32.80;33.70;;;;;;4916754;29;20090;-72
2023/05/10 10:36:01;;;;;;;8.70;2.20;;;32.80;33.70;;;;;;4923284;29;20072;-74
2023/05/10 10:38:38;;;;;;;4.60;2.05;;;33.00;33.30;;;;;;4918254;29;20083;-73
2023/05/10 10:41:12;;;;;;;3.88;1.67;;;33.20;33.70;;;;;;4923191;29;20043;-73
2023/05/10 10:43:39;;;;;;;3.55;2.15;;;33.20;33.00;;;;;;4921722;29;20055;-73
2023/05/10 10:46:14;;;;;;;3.15;1.75;;;33.10;33.20;;;;;;4934648;29;20095;-74
2023/05/10 10:48:42;;;;;;;2.28;2.08;;;33.00;33.10;;;;;;4929371;29;20533;-74
2023/05/10 10:51:10;;;;;;;3.83;2.00;;;33.10;32.60;;;;;;4933528;29;20059;-74
2023/05/10 10:53:39;;;;;;;6.25;1.65;;;33.20;33.10;;;;;;4933707;29;20052;-73
2023/05/10 10:56:09;;;;;;;5.45;2.00;;;33.40;32.50;;;;;;4926602;29;20577;-73
2023/05/10 10:58:37;;;;;;;4.75;2.15;;;33.40;32.40;;;;;;4916522;29;20075;-74
2023/05/10 11:01:16;;;;;;;4.82;1.85;;;33.70;31.90;;;;;;4917020;29;20043;-73
2023/05/10 11:04:18;;;;;;;4.55;1.73;;;34.00;31.80;;;;;;4916583;29;20115;-73
2023/05/10 11:06:47;;;;;;;5.50;1.92;;;34.30;31.50;;;;;;4927322;29;20052;-74
2023/05/10 11:09:14;;;;;;;2.50;1.55;;;34.50;31.50;;;;;;4933983;29;20039;-73
2023/05/10 11:11:54;;;;;;;7.32;2.05;;;34.50;30.90;;;;;;4931654;29;20047;-73
2023/05/10 11:14:23;;;;;;;14.00;1.80;;;34.60;30.90;;;;;;4933580;29;20174;-74
2023/05/10 11:16:50;;;;;;;3.67;1.70;;;34.60;30.40;;;;;;4905489;29;20099;-74
2023/05/10 11:19:19;;;;;;;4.05;1.83;;;34.60;30.30;;;;;;4929335;29;20044;-74
2023/05/10 11:21:49;;;;;;;3.83;1.80;;;34.40;31.00;;;;;;4933666;29;20051;-75
2023/05/10 11:24:18;;;;;;;3.25;1.95;;;34.40;30.90;;;;;;4923541;29;20135;-73
2023/05/10 11:26:46;;;;;;;4.90;1.60;;;34.50;31.80;;;;;;4927900;29;20051;-74
2023/05/10 11:29:14;;;;;;;5.07;2.00;;;34.70;31.10;;;;;;4898685;29;20047;-73
2023/05/10 11:31:46;;;;;;;5.40;2.28;;;34.90;30.90;;;;;;4930880;29;20056;-73
2023/05/10 11:34:24;;;;;;;8.40;2.10;;;35.30;30.30;;;;;;4916569;29;20062;-73
2023/05/10 11:36:54;;;;;;;5.13;1.88;;;35.40;30.70;;;;;;4933244;29;20055;-73
2023/05/10 11:39:22;;;;;;;8.57;2.20;;;35.50;30.60;;;;;;4916152;29;20079;-72
2023/05/10 11:41:50;;;;;;;11.15;2.03;;;35.30;30.10;;;;;;4923835;29;20120;-75
2023/05/10 11:44:17;;;;;;;4.35;1.73;;;35.10;30.30;;;;;;4929079;29;20401;-74
2023/05/10 11:46:44;;;;;;;2.72;1.90;;;34.80;29.90;;;;;;4930677;29;20138;-74
2023/05/10 11:49:13;;;;;;;3.05;1.80;;;34.80;30.10;;;;;;4914517;29;20055;-75
2023/05/10 11:51:43;;;;;;;3.55;1.98;;;35.00;30.00;;;;;;4933701;29;20087;-73
2023/05/10 11:54:12;;;;;;;3.47;1.65;;;35.30;29.80;;;;;;4935793;29;20047;-74
2023/05/10 11:56:40;;;;;;;12.07;1.65;;;35.50;29.60;;;;;;4933286;29;20048;-73
2023/05/10 11:59:08;;;;;;;4.35;1.70;;;35.60;29.40;;;;;;4933696;29;20073;-76
2023/05/10 12:01:36;;;;;;;3.22;1.70;;;35.50;29.40;;;;;;4935316;29;20401;-83
2023/05/10 12:04:04;;;;;;;5.93;2.70;;;35.40;29.70;;;;;;4914945;29;20552;-76
2023/05/10 12:06:32;;;;;;;7.60;2.22;;;35.50;29.80;;;;;;4930897;29;20567;-75
2023/05/10 12:09:00;;;;;;;5.28;1.60;;;35.70;29.80;;;;;;4933667;29;20200;-77
2023/05/10 12:11:29;;;;;;;6.82;2.00;;;35.90;29.60;;;;;;4918758;29;20047;-76
2023/05/10 12:13:57;;;;;;;6.30;1.80;;;35.80;29.60;;;;;;4933231;29;20063;-77
2023/05/10 12:16:26;;;;;;;2.03;1.60;;;35.80;29.60;;;;;;4908130;29;20063;-77
2023/05/10 12:18:55;;;;;;;6.53;1.60;;;35.80;29.30;;;;;;4914746;29;20048;-76
2023/05/10 12:21:22;;;;;;;4.95;1.70;;;35.80;29.40;;;;;;4928404;29;20130;-76
2023/05/10 12:23:52;;;;;;;5.88;1.73;;;35.60;29.30;;;;;;4924326;29;20064;-76
2023/05/10 12:26:23;;;;;;;13.30;5.40;;;35.20;29.30;;;;;;4928522;29;20059;-77
2023/05/10 12:28:52;;;;;;;3.53;1.60;;;34.90;29.90;;;;;;4933998;29;20083;-77
2023/05/10 12:31:19;;;;;;;4.70;2.92;;;34.80;29.40;;;;;;4933140;29;20501;-78
2023/05/10 12:33:49;;;;;;;5.60;1.75;;;34.80;29.40;;;;;;4925441;29;20055;-74
2023/05/10 12:36:17;;;;;;;3.20;1.70;;;35.00;29.60;;;;;;4928189;29;20090;-75
2023/05/10 12:38:48;;;;;;;4.43;1.55;;;35.00;29.40;;;;;;4929281;29;20052;-75
2023/05/10 12:41:17;;;;;;;5.10;1.60;;;35.40;29.10;;;;;;4915306;29;20517;-75
2023/05/10 12:43:46;;;;;;;7.43;1.77;;;35.70;28.50;;;;;;4926250;29;20048;-75
2023/05/10 12:46:18;;;;;;;3.25;1.98;;;35.50;28.70;;;;;;4907560;29;20044;-74
2023/05/10 12:48:47;;;;;;;2.85;2.03;;;35.60;28.70;;;;;;4904481;29;20056;-76
2023/05/10 12:51:16;;;;;;;3.50;1.70;;;35.40;28.40;;;;;;4925581;29;20665;-75
2023/05/10 12:53:45;;;;;;;7.30;1.70;;;35.00;28.80;;;;;;4896288;29;20056;-76